Time;durP1;ratioP1;P1;durP2;ratioP2;P2;SDS_P1;SDS_P2;PMS_P1;PMS_P2;Temp;Humidity;BMP_temperature;BMP_pressure;BME280_temperature;BME280_humidity;BME280_pressure;Samples;Min_cycle;Max_cycle;Signal;HPM_P1;HPM_P2
2023/04/15 00:02:18;;;;;;;9.65;4.72;;;;;;;2.87;100.00;97838.63;5033073;28;20025;-75
2023/04/15 00:04:45;;;;;;;11.57;4.60;;;;;;;2.94;100.00;97838.75;5036434;28;20062;-73
2023/04/15 00:07:11;;;;;;;8.70;3.95;;;;;;;2.89;100.00;97827.78;5054115;28;20038;-72
2023/04/15 00:09:36;;;;;;;8.65;4.63;;;;;;;2.83;100.00;97821.31;5055423;28;20147;-71
2023/04/15 00:12:02;;;;;;;10.75;5.32;;;;;;;2.87;100.00;97832.47;5045369;28;20036;-73
2023/04/15 00:14:27;;;;;;;11.25;4.10;;;;;;;2.84;100.00;97820.28;5045548;28;20116;-72
2023/04/15 00:16:55;;;;;;;6.90;4.10;;;;;;;2.69;100.00;97814.88;5050793;28;20107;-72
2023/04/15 00:19:20;;;;;;;8.77;3.53;;;;;;;2.72;100.00;97819.84;5040787;28;20049;-73
2023/04/15 00:21:46;;;;;;;5.80;3.20;;;;;;;2.80;100.00;97822.50;5039961;28;20098;-73
2023/04/15 00:24:12;;;;;;;6.97;3.83;;;;;;;2.84;100.00;97839.00;5034566;28;20621;-72
2023/04/15 00:26:37;;;;;;;7.20;3.90;;;;;;;2.92;100.00;97840.78;5046840;28;20034;-72
2023/04/15 00:29:02;;;;;;;9.95;3.40;;;;;;;2.62;100.00;97820.13;5061295;28;20088;-73
2023/04/15 00:31:29;;;;;;;12.38;3.55;;;;;;;2.62;100.00;97843.31;5043248;28;20055;-72
2023/04/15 00:33:54;;;;;;;11.30;3.33;;;;;;;2.53;100.00;97826.50;5063058;28;20104;-73
2023/04/15 00:36:19;;;;;;;14.02;3.33;;;;;;;2.57;100.00;97833.16;5064339;28;20461;-73
2023/04/15 00:38:45;;;;;;;6.88;3.20;;;;;;;2.47;100.00;97819.19;5076742;28;20029;-73
2023/04/15 00:41:11;;;;;;;8.15;3.45;;;;;;;2.41;100.00;97817.22;5035764;28;20020;-73
2023/04/15 00:43:37;;;;;;;6.15;3.08;;;;;;;2.49;100.00;97838.56;5031325;28;20162;-73
2023/04/15 00:46:04;;;;;;;7.88;3.40;;;;;;;2.45;100.00;97818.53;5053726;28;20551;-73
2023/04/15 00:48:30;;;;;;;7.90;3.25;;;;;;;2.53;100.00;97831.00;5054077;28;20044;-74
2023/04/15 00:50:55;;;;;;;8.07;4.07;;;;;;;2.46;100.00;97824.69;5053641;28;20025;-73
2023/04/15 00:53:21;;;;;;;7.97;3.47;;;;;;;2.38;100.00;97834.44;5047104;28;20025;-73
2023/04/15 00:55:46;;;;;;;9.13;3.58;;;;;;;2.35;100.00;97812.59;5036625;28;20024;-72
2023/04/15 00:58:11;;;;;;;11.27;3.97;;;;;;;2.33;100.00;97820.78;5054511;28;20055;-73
2023/04/15 01:03:14;;;;;;;6.93;3.80;;;;;;;2.18;100.00;97812.69;5050557;28;20494;-76
2023/04/15 01:05:40;;;;;;;9.23;3.33;;;;;;;2.22;100.00;97833.69;5054724;28;20024;-76
2023/04/15 01:08:05;;;;;;;6.95;3.50;;;;;;;2.19;100.00;97829.53;5041062;28;20398;-76
2023/04/15 01:10:31;;;;;;;5.68;3.40;;;;;;;2.21;100.00;97834.69;5044932;28;20032;-76
2023/04/15 01:12:56;;;;;;;7.65;3.42;;;;;;;2.24;100.00;97829.84;5048226;28;20028;-76
2023/04/15 01:15:22;;;;;;;8.98;2.70;;;;;;;2.23;100.00;97814.84;5049200;28;20029;-75
2023/04/15 01:17:48;;;;;;;7.07;3.78;;;;;;;2.18;100.00;97823.34;5045976;28;20040;-76
2023/04/15 01:20:15;;;;;;;9.60;3.25;;;;;;;2.20;100.00;97820.50;5031457;28;20021;-75
2023/04/15 01:22:40;;;;;;;7.88;3.60;;;;;;;2.27;100.00;97818.81;5044177;28;20040;-76
2023/04/15 01:25:11;;;;;;;9.45;4.03;;;;;;;2.37;100.00;97822.09;5055319;28;20025;-75
2023/04/15 01:27:39;;;;;;;7.97;3.80;;;;;;;2.35;100.00;97826.75;5051824;28;20115;-76
2023/04/15 01:30:06;;;;;;;7.72;3.42;;;;;;;2.21;100.00;97819.50;5050833;28;20075;-75
2023/04/15 01:32:32;;;;;;;7.53;3.92;;;;;;;2.14;100.00;97827.38;5052940;28;20033;-76
2023/04/15 01:34:57;;;;;;;7.32;3.88;;;;;;;2.00;100.00;97816.63;5038995;28;20025;-76
2023/04/15 01:37:23;;;;;;;10.25;4.75;;;;;;;1.90;100.00;97814.97;5052118;28;20021;-76
2023/04/15 01:39:48;;;;;;;10.00;3.70;;;;;;;1.91;100.00;97826.47;5052582;28;20033;-76
2023/04/15 01:42:14;;;;;;;8.20;3.88;;;;;;;1.91;100.00;97822.00;5033463;28;20118;-76
2023/04/15 01:44:39;;;;;;;7.88;4.18;;;;;;;1.95;100.00;97825.13;5036009;28;20024;-76
2023/04/15 01:47:05;;;;;;;12.27;4.50;;;;;;;1.93;100.00;97830.63;5049078;28;20426;-76
2023/04/15 01:49:31;;;;;;;11.40;4.63;;;;;;;1.85;100.00;97836.00;5038586;28;20057;-76
2023/04/15 01:51:56;;;;;;;7.95;4.68;;;;;;;1.83;100.00;97840.66;5053599;28;20021;-76
2023/04/15 01:54:22;;;;;;;8.43;4.45;;;;;;;1.74;100.00;97836.38;5037430;28;20500;-75
2023/04/15 01:56:47;;;;;;;10.48;5.03;;;;;;;1.67;100.00;97830.03;5037642;28;20449;-76
2023/04/15 01:59:12;;;;;;;11.65;4.88;;;;;;;1.66;100.00;97831.88;5051035;28;20048;-75
2023/04/15 02:01:38;;;;;;;12.20;5.07;;;;;;;1.68;100.00;97831.72;5035840;28;20021;-76
2023/04/15 02:04:04;;;;;;;12.00;4.97;;;;;;;1.71;100.00;97836.72;5037949;28;20037;-77
2023/04/15 02:06:29;;;;;;;8.50;4.53;;;;;;;1.63;100.00;97828.75;5051161;28;20402;-76
2023/04/15 02:08:54;;;;;;;8.30;4.80;;;;;;;1.59;100.00;97824.75;5055800;28;20033;-76
2023/04/15 02:11:19;;;;;;;11.07;4.35;;;;;;;1.38;100.00;97802.13;5051427;28;20565;-76
2023/04/15 02:13:45;;;;;;;9.52;4.70;;;;;;;1.54;100.00;97831.41;5051613;28;20035;-76
2023/04/15 02:16:19;;;;;;;9.05;4.45;;;;;;;1.65;100.00;97842.72;5035681;28;20140;-76
2023/04/15 02:18:45;;;;;;;9.48;4.50;;;;;;;1.72;100.00;97833.03;5025755;28;20066;-76
2023/04/15 02:21:11;;;;;;;7.32;4.57;;;;;;;1.64;100.00;97833.88;5040889;28;20013;-76
2023/04/15 02:23:36;;;;;;;8.77;4.15;;;;;;;1.66;100.00;97841.72;5042236;28;20402;-76
2023/04/15 02:26:02;;;;;;;7.63;4.35;;;;;;;1.62;100.00;97827.06;5025442;28;20029;-76
2023/04/15 02:28:27;;;;;;;7.18;4.25;;;;;;;1.73;100.00;97840.03;5049022;28;20044;-77
2023/04/15 02:30:54;;;;;;;8.90;4.45;;;;;;;1.47;100.00;97834.94;5050745;28;20031;-76
2023/04/15 02:33:20;;;;;;;10.38;4.60;;;;;;;1.31;100.00;97831.31;5052820;28;20044;-76
2023/04/15 02:35:46;;;;;;;6.45;4.00;;;;;;;1.40;100.00;97833.94;5037673;28;20064;-76
2023/04/15 02:38:13;;;;;;;6.40;4.03;;;;;;;1.37;100.00;97831.63;5035365;28;20029;-76
2023/04/15 02:40:38;;;;;;;6.55;4.15;;;;;;;1.29;100.00;97835.13;5034315;28;20025;-76
2023/04/15 02:43:05;;;;;;;8.40;4.25;;;;;;;1.28;100.00;97830.78;5037074;28;20120;-76
2023/04/15 02:45:31;;;;;;;10.88;5.22;;;;;;;1.23;100.00;97835.78;5051790;28;20033;-76
2023/04/15 02:47:56;;;;;;;9.82;4.90;;;;;;;1.27;100.00;97834.47;5049931;28;20036;-76
2023/04/15 02:50:22;;;;;;;7.20;4.22;;;;;;;1.20;100.00;97828.13;5046820;28;20021;-76
2023/04/15 02:52:47;;;;;;;10.57;4.50;;;;;;;1.17;100.00;97820.47;5033832;28;20436;-77
2023/04/15 02:55:13;;;;;;;10.80;4.53;;;;;;;1.15;100.00;97823.31;5038524;28;20025;-76
2023/04/15 02:57:39;;;;;;;9.18;4.65;;;;;;;1.21;100.00;97835.13;5033210;28;20045;-76
2023/04/15 03:00:08;;;;;;;8.00;4.57;;;;;;;1.23;100.00;97825.97;5041626;28;20024;-76
2023/04/15 03:02:35;;;;;;;7.97;3.97;;;;;;;1.18;100.00;97827.47;5049946;28;20032;-76
2023/04/15 03:05:01;;;;;;;6.47;3.90;;;;;;;1.17;100.00;97839.13;5042825;28;20049;-76
2023/04/15 03:07:26;;;;;;;9.88;4.50;;;;;;;1.10;100.00;97828.28;5032117;28;20060;-76
2023/04/15 03:09:51;;;;;;;7.72;4.63;;;;;;;1.25;100.00;97831.13;5049975;28;20066;-76
2023/04/15 03:12:17;;;;;;;9.68;4.75;;;;;;;1.37;100.00;97842.28;5042187;28;20112;-76
2023/04/15 03:14:42;;;;;;;10.32;3.90;;;;;;;1.26;100.00;97812.31;5027696;28;20474;-76
2023/04/15 03:17:07;;;;;;;7.30;3.97;;;;;;;1.28;100.00;97812.13;5050208;28;20017;-76
2023/04/15 03:19:32;;;;;;;6.68;3.85;;;;;;;1.34;100.00;97818.63;5052454;28;20028;-76
2023/04/15 03:21:58;;;;;;;6.50;3.88;;;;;;;1.45;100.00;97832.44;5032896;28;20028;-76
2023/04/15 03:24:23;;;;;;;9.35;4.63;;;;;;;1.57;100.00;97837.41;5030280;28;20029;-76
2023/04/15 03:26:49;;;;;;;9.57;4.50;;;;;;;1.67;100.00;97835.38;5036933;28;20066;-76
2023/04/15 03:29:14;;;;;;;7.32;4.55;;;;;;;1.78;100.00;97823.50;5049038;28;20025;-76
2023/04/15 03:31:40;;;;;;;9.18;4.57;;;;;;;1.83;100.00;97831.84;5048636;28;20032;-76
2023/04/15 03:34:05;;;;;;;8.57;4.60;;;;;;;1.78;100.00;97816.34;5028818;28;20031;-76
2023/04/15 03:36:32;;;;;;;9.93;4.60;;;;;;;1.88;100.00;97816.97;5034900;28;20021;-76
2023/04/15 03:38:57;;;;;;;6.82;4.60;;;;;;;1.84;100.00;97820.19;5039954;28;20475;-76
2023/04/15 03:41:23;;;;;;;9.23;4.90;;;;;;;1.68;100.00;97808.56;5017547;28;20032;-76
2023/04/15 03:43:50;;;;;;;9.25;4.53;;;;;;;1.74;100.00;97821.19;5036831;28;20055;-76
2023/04/15 03:46:16;;;;;;;8.60;4.43;;;;;;;1.63;100.00;97808.25;5037530;28;20091;-76
2023/04/15 03:48:41;;;;;;;8.43;4.38;;;;;;;1.56;100.00;97812.59;5046343;28;20025;-76
2023/04/15 03:51:07;;;;;;;7.15;3.85;;;;;;;1.66;100.00;97807.06;5048847;28;20021;-76
2023/04/15 03:53:32;;;;;;;10.25;5.03;;;;;;;1.61;100.00;97793.41;5043757;28;20121;-76
2023/04/15 03:55:57;;;;;;;9.95;4.82;;;;;;;1.67;100.00;97806.06;5050700;28;20079;-76
2023/04/15 03:58:23;;;;;;;8.50;4.28;;;;;;;1.55;100.00;97800.28;5047506;28;20082;-75
2023/04/15 04:00:48;;;;;;;12.45;5.43;;;;;;;1.51;100.00;97798.94;5019151;28;20020;-75
2023/04/15 04:03:13;;;;;;;8.73;4.90;;;;;;;1.53;100.00;97816.41;5022323;28;20028;-74
2023/04/15 04:05:40;;;;;;;10.23;4.75;;;;;;;1.45;100.00;97808.44;5048450;28;20382;-80
2023/04/15 04:08:06;;;;;;;9.02;4.38;;;;;;;1.46;100.00;97814.59;5034352;28;20036;-77
2023/04/15 04:10:31;;;;;;;8.05;4.03;;;;;;;1.35;100.00;97814.97;5052282;28;20017;-75
2023/04/15 04:12:56;;;;;;;8.70;3.90;;;;;;;1.29;100.00;97813.81;5048333;28;20147;-74
2023/04/15 04:15:22;;;;;;;9.02;3.90;;;;;;;1.19;100.00;97815.81;5036268;28;20026;-74
2023/04/15 04:17:47;;;;;;;8.20;4.47;;;;;;;1.40;100.00;97834.78;5055069;28;20090;-74
2023/04/15 04:20:12;;;;;;;8.05;4.63;;;;;;;1.19;100.00;97810.50;5053245;28;20923;-75
2023/04/15 04:22:39;;;;;;;7.43;4.15;;;;;;;1.28;100.00;97820.97;5054366;28;20036;-75
2023/04/15 04:25:06;;;;;;;6.18;3.80;;;;;;;1.27;100.00;97819.31;5047027;28;20533;-74
2023/04/15 04:27:31;;;;;;;11.38;5.32;;;;;;;1.21;100.00;97832.47;5055326;28;20032;-74
2023/04/15 04:29:56;;;;;;;8.30;4.95;;;;;;;1.14;100.00;97823.50;5045490;28;20036;-74
2023/04/15 04:32:21;;;;;;;8.48;4.78;;;;;;;1.07;100.00;97834.81;5040188;28;20024;-75
2023/04/15 04:34:47;;;;;;;11.50;4.93;;;;;;;1.02;100.00;97826.50;5051621;28;20033;-75
2023/04/15 04:37:12;;;;;;;12.20;4.93;;;;;;;0.93;100.00;97834.66;5054801;28;20059;-75
2023/04/15 04:39:38;;;;;;;7.63;4.47;;;;;;;0.80;100.00;97796.03;5052091;28;20107;-75
2023/04/15 04:42:04;;;;;;;8.65;5.00;;;;;;;0.87;100.00;97834.31;5035694;28;20044;-74
2023/04/15 04:44:30;;;;;;;10.07;5.10;;;;;;;0.86;100.00;97840.66;5051837;28;20063;-76
2023/04/15 04:46:55;;;;;;;10.15;4.78;;;;;;;0.95;100.00;97849.47;5051123;28;20078;-75
2023/04/15 04:49:20;;;;;;;11.02;4.68;;;;;;;0.95;100.00;97849.47;5059718;28;20024;-75
2023/04/15 04:51:47;;;;;;;11.55;4.75;;;;;;;0.99;100.00;97860.59;5044219;28;20039;-76
2023/04/15 04:54:12;;;;;;;9.68;5.15;;;;;;;1.00;100.00;97847.13;5049399;28;20020;-75
2023/04/15 04:56:38;;;;;;;12.35;4.38;;;;;;;0.99;100.00;97853.44;5036562;28;20033;-76
2023/04/15 04:59:04;;;;;;;10.65;4.60;;;;;;;1.05;100.00;97852.78;5048391;28;20056;-75
2023/04/15 05:01:29;;;;;;;10.65;4.53;;;;;;;1.17;100.00;97861.25;5037528;28;20028;-78
2023/04/15 05:04:16;;;;;;;10.48;4.47;;;;;;;1.26;100.00;97868.28;5026951;28;20486;-77
2023/04/15 05:06:42;;;;;;;10.40;4.53;;;;;;;1.27;100.00;97855.78;5048320;28;20032;-77
2023/04/15 05:09:07;;;;;;;8.50;4.22;;;;;;;1.23;100.00;97851.78;5054522;28;20095;-77
2023/04/15 05:11:32;;;;;;;7.13;3.97;;;;;;;1.29;100.00;97853.78;5036653;28;20121;-76
2023/04/15 05:14:00;;;;;;;9.38;3.95;;;;;;;1.32;100.00;97850.78;5024342;28;20054;-77
2023/04/15 05:16:25;;;;;;;7.90;4.25;;;;;;;1.37;100.00;97855.59;5035038;28;20162;-76
2023/04/15 05:18:51;;;;;;;9.20;3.83;;;;;;;1.41;100.00;97856.91;5053746;28;20064;-75
2023/04/15 05:21:16;;;;;;;6.28;4.03;;;;;;;1.47;100.00;97851.75;5044585;28;20025;-75
2023/04/15 05:23:42;;;;;;;8.05;5.32;;;;;;;1.57;100.00;97854.22;5031963;28;20041;-75
2023/04/15 05:26:07;;;;;;;9.48;4.90;;;;;;;1.67;100.00;97854.03;5037784;28;20032;-75
2023/04/15 05:28:32;;;;;;;8.48;4.90;;;;;;;1.74;100.00;97850.53;5046198;28;20044;-75
2023/04/15 05:30:57;;;;;;;12.07;4.75;;;;;;;1.72;100.00;97843.69;5037304;28;20025;-76
2023/04/15 05:33:23;;;;;;;7.38;4.53;;;;;;;1.80;100.00;97843.66;5037163;28;20090;-78
2023/04/15 05:35:48;;;;;;;7.60;4.40;;;;;;;1.82;100.00;97838.19;5040185;28;20441;-77
2023/04/15 05:38:13;;;;;;;9.10;4.45;;;;;;;2.00;100.00;97845.97;5039269;28;20051;-76
2023/04/15 05:40:39;;;;;;;13.68;4.20;;;;;;;1.94;100.00;97836.81;5048592;28;20024;-77
2023/04/15 05:43:13;;;;;;;7.38;4.53;;;;;;;2.07;100.00;97845.09;5049332;28;20025;-79
2023/04/15 05:45:39;;;;;;;10.63;5.13;;;;;;;2.13;100.00;97836.38;5032424;28;20032;-78
2023/04/15 05:48:04;;;;;;;7.80;4.63;;;;;;;2.22;100.00;97836.34;5045091;28;20079;-76
2023/04/15 05:50:29;;;;;;;8.05;4.40;;;;;;;2.44;100.00;97856.06;5046067;28;20427;-77
2023/04/15 05:52:55;;;;;;;13.82;4.55;;;;;;;2.54;100.00;97846.88;5032471;28;20108;-77
2023/04/15 05:55:21;;;;;;;9.65;3.95;;;;;;;2.77;100.00;97848.72;5052032;28;20398;-79
2023/04/15 05:57:46;;;;;;;7.18;4.40;;;;;;;2.97;100.00;97844.56;5035387;28;20124;-78
2023/04/15 06:00:12;;;;;;;6.65;3.65;;;;;;;3.24;100.00;97840.50;5042547;28;20033;-74
2023/04/15 06:02:38;;;;;;;7.55;4.50;;;;;;;3.62;100.00;97848.50;5034785;28;20120;-75
2023/04/15 06:05:08;;;;;;;8.55;3.97;;;;;;;4.14;100.00;97852.94;5030410;28;20031;-75
2023/04/15 06:07:34;;;;;;;5.70;3.45;;;;;;;4.47;100.00;97817.72;5030591;28;20036;-75
2023/04/15 06:09:59;;;;;;;32.72;12.60;;;;;;;4.90;100.00;97828.47;5049534;28;20982;-75
2023/04/15 06:12:24;;;;;;;60.20;23.05;;;;;;;5.02;100.00;97839.50;5036877;28;20093;-77
2023/04/15 06:14:50;;;;;;;58.90;22.73;;;;;;;5.88;100.00;97834.00;5063078;28;20120;-78
2023/04/15 06:17:17;;;;;;;43.53;18.02;;;;;;;7.89;100.00;97831.56;5058099;28;20092;-77
2023/04/15 06:19:42;;;;;;;17.45;8.30;;;;;;;9.25;100.00;97827.03;5075275;28;20073;-77
2023/04/15 06:22:07;;;;;;;19.38;8.20;;;;;;;9.17;100.00;97822.75;5059620;28;20009;-77
2023/04/15 06:24:33;;;;;;;21.73;7.80;;;;;;;9.32;100.00;97804.34;5072118;28;20033;-77
2023/04/15 06:26:58;;;;;;;18.30;8.00;;;;;;;11.13;100.00;97823.75;5059347;28;20056;-76
2023/04/15 06:29:24;;;;;;;13.40;6.95;;;;;;;11.18;100.00;97818.44;5036587;28;20029;-76
2023/04/15 06:31:50;;;;;;;15.80;7.40;;;;;;;10.65;100.00;97824.63;5034711;28;20025;-77
2023/04/15 06:34:16;;;;;;;16.70;5.97;;;;;;;10.71;100.00;97822.88;5042061;28;20021;-78
2023/04/15 06:36:41;;;;;;;13.73;6.07;;;;;;;13.09;99.54;97825.13;5053726;28;20028;-76
2023/04/15 06:39:06;;;;;;;11.07;5.15;;;;;;;15.99;68.65;97826.41;5051677;28;20025;-79
2023/04/15 06:41:31;;;;;;;9.40;4.53;;;;;;;19.41;56.33;97822.16;5049489;28;20033;-77
2023/04/15 06:43:57;;;;;;;10.35;4.20;;;;;;;21.00;49.61;97828.84;5049818;28;20024;-77
2023/04/15 06:46:22;;;;;;;8.30;4.00;;;;;;;19.57;48.88;97824.78;5029945;28;20505;-77
2023/04/15 06:48:48;;;;;;;7.13;3.30;;;;;;;16.39;54.30;97841.41;5030437;28;20033;-78
2023/04/15 06:51:13;;;;;;;7.25;3.42;;;;;;;14.76;61.36;97840.75;5032273;28;20028;-77
2023/04/15 06:53:40;;;;;;;9.68;4.68;;;;;;;12.52;74.98;97849.50;5038403;28;20036;-77
2023/04/15 06:56:08;;;;;;;7.85;4.35;;;;;;;11.18;100.00;97845.53;5032801;28;20493;-77
2023/04/15 06:58:34;;;;;;;6.65;4.00;;;;;;;10.23;100.00;97850.69;5029705;28;20446;-77
2023/04/15 07:00:59;;;;;;;5.28;3.72;;;;;;;10.16;100.00;97853.44;5038345;28;20037;-80
2023/04/15 07:04:02;;;;;;;10.60;4.80;;;;;;;9.76;100.00;97848.41;5072813;28;20024;-79
2023/04/15 07:06:27;;;;;;;4.53;3.40;;;;;;;9.41;100.00;97845.41;5057190;22;20398;-79
2023/04/15 07:08:53;;;;;;;8.55;4.03;;;;;;;9.69;100.00;97819.81;5034305;28;20021;-79
2023/04/15 07:11:19;;;;;;;8.40;3.58;;;;;;;10.34;100.00;97849.13;5042849;28;20020;-79
2023/04/15 07:13:45;;;;;;;6.18;3.28;;;;;;;11.87;100.00;97828.84;5050421;28;20421;-75
2023/04/15 07:16:10;;;;;;;6.95;3.50;;;;;;;11.68;100.00;97828.06;5022372;28;20026;-77
2023/04/15 07:18:36;;;;;;;7.10;3.13;;;;;;;12.60;100.00;97837.47;5035363;28;20039;-75
2023/04/15 07:21:01;;;;;;;9.15;3.65;;;;;;;12.65;100.00;97834.84;5034040;28;20029;-80
2023/04/15 07:23:33;;;;;;;7.55;2.90;;;;;;;12.68;100.00;97837.94;5037857;28;20022;-82
2023/04/15 07:25:58;;;;;;;9.32;3.17;;;;;;;12.48;100.00;97835.59;5024288;28;20108;-77
2023/04/15 07:28:23;;;;;;;10.35;3.20;;;;;;;13.32;96.16;97823.41;5013699;28;20053;-77
2023/04/15 07:30:49;;;;;;;9.77;2.92;;;;;;;13.69;86.39;97818.28;5028296;28;20018;-79
2023/04/15 07:33:14;;;;;;;5.65;2.92;;;;;;;12.67;100.00;97843.59;5033269;28;20067;-77
2023/04/15 07:35:40;;;;;;;4.00;2.58;;;;;;;12.84;100.00;97792.91;5015759;28;20549;-78
2023/04/15 07:38:05;;;;;;;5.20;2.60;;;;;;;14.21;84.83;97826.16;5032255;28;20033;-80
2023/04/15 07:40:31;;;;;;;7.07;2.92;;;;;;;15.39;74.03;97804.91;5014585;28;20083;-77
2023/04/15 07:42:57;;;;;;;5.22;3.17;;;;;;;18.04;61.23;97802.41;5024385;28;20033;-77
2023/04/15 07:45:22;;;;;;;5.35;3.25;;;;;;;19.96;51.88;97807.47;5028923;28;20026;-79
2023/04/15 07:47:49;;;;;;;8.90;3.08;;;;;;;20.50;50.58;97809.09;5015564;28;20036;-80
2023/04/15 07:50:15;;;;;;;6.65;3.10;;;;;;;21.13;48.75;97813.56;5026513;28;20021;-79
2023/04/15 07:52:40;;;;;;;8.43;2.97;;;;;;;21.60;46.50;97809.84;5031516;28;20071;-80
2023/04/15 07:55:07;;;;;;;4.47;2.80;;;;;;;23.44;43.01;97812.97;5020833;28;20032;-80
2023/04/15 07:57:33;;;;;;;10.80;3.30;;;;;;;22.65;43.11;97816.84;5034560;28;20025;-80
2023/04/15 07:59:59;;;;;;;6.38;3.55;;;;;;;22.60;43.19;97815.00;5019079;28;20037;-82
2023/04/15 08:02:25;;;;;;;10.27;3.55;;;;;;;22.92;41.77;97804.97;5026376;28;20395;-80
2023/04/15 08:04:51;;;;;;;5.95;3.08;;;;;;;22.59;41.91;97801.53;5015447;28;20027;-79
2023/04/15 08:07:17;;;;;;;6.65;3.30;;;;;;;23.53;40.41;97808.34;5030561;28;20084;-80
2023/04/15 08:09:42;;;;;;;12.63;3.88;;;;;;;24.64;39.06;97798.28;5023298;28;20124;-80
2023/04/15 08:12:11;;;;;;;7.78;3.20;;;;;;;24.89;39.91;97785.69;5024368;28;20117;-80
2023/04/15 08:14:36;;;;;;;5.72;3.28;;;;;;;23.08;40.83;97798.03;5029829;28;20081;-78
2023/04/15 08:17:01;;;;;;;5.25;3.03;;;;;;;24.89;38.57;97804.25;5017650;28;20083;-79
2023/04/15 08:19:27;;;;;;;5.47;3.05;;;;;;;25.43;37.01;97802.06;5018896;28;20021;-80
2023/04/15 08:21:52;;;;;;;7.75;3.30;;;;;;;25.01;36.17;97798.06;5036275;28;20021;-79
2023/04/15 08:24:18;;;;;;;5.85;2.60;;;;;;;24.59;37.12;97787.38;5024829;28;20079;-79
2023/04/15 08:26:43;;;;;;;8.75;3.25;;;;;;;22.81;39.47;97804.38;5033568;28;20083;-78
2023/04/15 08:29:09;;;;;;;7.60;3.33;;;;;;;21.39;42.31;97811.28;5020431;28;20029;-82
2023/04/15 08:31:34;;;;;;;7.90;3.35;;;;;;;20.04;44.79;97782.97;5034939;28;20475;-78
2023/04/15 08:34:00;;;;;;;8.20;3.30;;;;;;;22.22;42.69;97779.34;5015670;28;20057;-78
2023/04/15 08:36:25;;;;;;;6.20;3.15;;;;;;;22.44;40.95;97797.94;5041833;28;20116;-80
2023/04/15 08:38:51;;;;;;;10.50;3.15;;;;;;;22.82;40.98;97803.25;5016482;28;20675;-76
2023/04/15 08:41:22;;;;;;;6.47;2.88;;;;;;;22.78;41.06;97804.19;5009768;28;20403;-75
2023/04/15 08:43:53;;;;;;;7.32;2.70;;;;;;;21.84;41.67;97798.72;5020637;28;20044;-75
2023/04/15 08:46:19;;;;;;;6.18;3.20;;;;;;;22.94;41.19;97808.22;5032173;28;20021;-76
2023/04/15 08:48:46;;;;;;;7.55;3.38;;;;;;;24.36;39.38;97791.31;5022289;28;20148;-79
2023/04/15 08:51:14;;;;;;;9.07;3.55;;;;;;;23.30;40.60;97802.78;5016096;28;20043;-79
2023/04/15 08:53:41;;;;;;;4.93;2.65;;;;;;;21.06;44.08;97804.84;5031972;28;20414;-77
2023/04/15 08:56:09;;;;;;;6.93;3.13;;;;;;;19.41;46.81;97789.25;5020864;28;20048;-78
2023/04/15 08:58:35;;;;;;;8.05;3.58;;;;;;;18.72;49.99;97790.97;5010601;28;20044;-79
2023/04/15 09:01:00;;;;;;;7.00;3.30;;;;;;;18.37;51.05;97798.25;5013279;28;20100;-77
2023/04/15 09:03:27;;;;;;;6.15;2.90;;;;;;;18.02;54.78;97790.91;5032241;28;20026;-76
2023/04/15 09:05:53;;;;;;;8.90;3.25;;;;;;;18.29;53.68;97806.22;5031200;28;20112;-78
2023/04/15 09:08:19;;;;;;;5.85;3.15;;;;;;;18.72;53.80;97809.34;5013016;28;20398;-77
2023/04/15 09:10:44;;;;;;;6.72;2.97;;;;;;;19.01;52.98;97791.13;5030538;28;20051;-83
2023/04/15 09:13:10;;;;;;;5.00;3.10;;;;;;;19.38;51.49;97795.28;5033060;28;20380;-85
2023/04/15 09:15:37;;;;;;;7.95;2.83;;;;;;;20.61;50.42;97823.56;5012396;28;21692;-78
2023/04/15 09:18:03;;;;;;;3.33;2.15;;;;;;;23.15;46.37;97803.13;5021975;28;20141;-87
2023/04/15 09:20:29;;;;;;;5.22;2.25;;;;;;;24.43;42.40;97806.31;5031338;28;20436;-85
2023/04/15 09:22:54;;;;;;;6.07;2.22;;;;;;;26.82;39.87;97807.31;5023858;28;20025;-72
2023/04/15 09:25:29;;;;;;;6.07;2.20;;;;;;;29.28;34.58;97822.13;5029720;28;20023;-72
2023/04/15 09:27:56;;;;;;;4.38;1.70;;;;;;;30.89;31.73;97818.31;5005312;28;20048;-72
2023/04/15 09:30:22;;;;;;;4.13;2.00;;;;;;;30.70;32.16;97815.38;5023293;28;20017;-72
2023/04/15 09:32:52;;;;;;;5.13;1.98;;;;;;;29.60;33.40;97825.88;5023216;28;20048;-74
2023/04/15 09:35:19;;;;;;;4.40;1.83;;;;;;;28.75;33.60;97816.47;5032145;28;20029;-74
2023/04/15 09:37:45;;;;;;;2.63;1.40;;;;;;;27.58;33.86;97816.63;5028102;28;20393;-74
2023/04/15 09:40:11;;;;;;;3.20;1.50;;;;;;;25.65;36.74;97828.78;5029477;28;20108;-74
2023/04/15 09:42:53;;;;;;;3.83;1.50;;;;;;;27.46;35.72;97822.97;5014128;28;20025;-73
2023/04/15 09:45:18;;;;;;;4.05;1.50;;;;;;;29.61;34.21;97821.16;5026632;28;20550;-74
2023/04/15 09:47:44;;;;;;;2.80;1.40;;;;;;;30.20;32.09;97823.22;5028678;28;20112;-72
2023/04/15 09:50:09;;;;;;;4.45;1.67;;;;;;;28.70;33.14;97824.22;5014209;28;20052;-72
2023/04/15 09:52:42;;;;;;;3.78;1.52;;;;;;;27.34;34.05;97819.28;5030976;28;20429;-74
2023/04/15 09:55:07;;;;;;;4.70;1.50;;;;;;;27.09;35.08;97824.63;5030001;28;20037;-74
2023/04/15 09:57:35;;;;;;;2.42;1.30;;;;;;;26.12;35.95;97828.09;5026932;28;20076;-74
2023/04/15 10:00:02;;;;;;;3.55;1.60;;;;;;;26.22;35.62;97816.66;5027597;28;20084;-73
2023/04/15 10:02:29;;;;;;;4.25;1.80;;;;;;;26.31;36.13;97831.34;5027815;28;20026;-74
2023/04/15 10:04:55;;;;;;;4.15;1.55;;;;;;;27.00;35.53;97818.34;5028366;28;20021;-74
2023/04/15 10:07:21;;;;;;;3.38;1.88;;;;;;;27.01;34.31;97825.50;5017153;28;20108;-71
2023/04/15 10:09:48;;;;;;;2.00;1.33;;;;;;;29.13;33.79;97814.50;5029833;28;20113;-71
2023/04/15 10:12:15;;;;;;;5.35;1.60;;;;;;;31.00;31.99;97824.16;5029707;28;20100;-74
2023/04/15 10:14:41;;;;;;;3.40;1.50;;;;;;;30.68;30.87;97826.94;5030462;28;20053;-73
2023/04/15 10:17:12;;;;;;;3.03;1.23;;;;;;;30.03;31.67;97835.53;5025526;28;20034;-74
2023/04/15 10:19:38;;;;;;;5.28;1.10;;;;;;;30.62;31.57;97835.94;5031168;28;20553;-74
2023/04/15 10:22:03;;;;;;;4.28;1.50;;;;;;;31.20;29.53;97828.63;5027161;28;20171;-74
2023/04/15 10:24:30;;;;;;;5.28;1.50;;;;;;;32.77;30.13;97826.63;5014947;28;20032;-74
2023/04/15 10:26:57;;;;;;;3.45;1.33;;;;;;;32.61;29.26;97832.34;5022360;28;20029;-74
2023/04/15 10:29:26;;;;;;;4.07;1.10;;;;;;;33.58;28.06;97818.69;5024134;28;20040;-72
2023/04/15 10:31:54;;;;;;;2.65;1.20;;;;;;;32.46;27.85;97826.47;5027259;28;20390;-72
2023/04/15 10:34:20;;;;;;;5.57;1.40;;;;;;;31.59;28.23;97831.50;5029213;28;20029;-71
2023/04/15 10:36:46;;;;;;;4.55;1.15;;;;;;;31.50;28.85;97836.50;5028175;28;20041;-73
2023/04/15 10:39:30;;;;;;;4.38;1.33;;;;;;;30.52;30.60;97840.06;5031059;28;20108;-73
2023/04/15 10:42:07;;;;;;;3.35;1.50;;;;;;;29.89;30.04;97837.91;5034988;28;20025;-73
2023/04/15 10:44:36;;;;;;;2.35;1.20;;;;;;;28.61;31.72;97830.72;5007940;28;20148;-73
2023/04/15 10:47:09;;;;;;;4.55;1.50;;;;;;;28.00;32.42;97844.44;5024424;28;20465;-71
2023/04/15 10:49:42;;;;;;;4.53;1.30;;;;;;;26.18;34.16;97849.78;5030249;28;20429;-71
2023/04/15 10:52:07;;;;;;;6.05;1.48;;;;;;;27.11;33.14;97841.78;5027487;28;20071;-71
2023/04/15 10:54:35;;;;;;;3.47;1.45;;;;;;;28.01;33.04;97829.38;5024203;28;20029;-71
2023/04/15 10:57:03;;;;;;;4.55;1.55;;;;;;;28.34;31.93;97842.44;5025561;28;20029;-71
2023/04/15 10:59:29;;;;;;;1.90;1.40;;;;;;;27.91;32.07;97830.63;5029132;28;20566;-71
2023/04/15 11:01:58;;;;;;;4.03;1.30;;;;;;;27.96;32.53;97838.75;5019928;28;20295;-71
2023/04/15 11:04:53;;;;;;;3.67;1.38;;;;;;;26.24;34.24;97848.47;5025683;28;20495;-71
2023/04/15 11:07:37;;;;;;;2.92;1.60;;;;;;;24.63;35.84;97845.66;5026261;28;20030;-71
2023/04/15 11:10:29;;;;;;;4.05;1.50;;;;;;;23.99;37.63;97849.47;5022169;28;20029;-71
2023/04/15 11:13:00;;;;;;;3.63;1.42;;;;;;;22.80;38.85;97844.09;4996830;28;20041;-71
2023/04/15 11:15:36;;;;;;;7.63;1.90;;;;;;;22.62;39.77;97847.78;5007524;28;20118;-71
2023/04/15 11:18:22;;;;;;;4.88;1.90;;;;;;;21.57;41.30;97849.00;5027714;28;20082;-71
2023/04/15 11:20:49;;;;;;;4.05;2.25;;;;;;;21.19;42.15;97850.88;5011223;28;20100;-70
2023/04/15 11:23:26;;;;;;;6.88;1.90;;;;;;;20.96;42.41;97858.88;5029240;28;20052;-71
2023/04/15 11:25:54;;;;;;;6.68;2.00;;;;;;;20.74;43.70;97848.41;5011084;28;20056;-70
2023/04/15 11:28:19;;;;;;;6.63;1.90;;;;;;;20.40;43.97;97851.25;5033045;28;20491;-71
2023/04/15 11:30:44;;;;;;;3.42;1.60;;;;;;;20.22;43.47;97852.78;5030399;28;20157;-71
2023/04/15 11:33:11;;;;;;;2.13;1.60;;;;;;;20.19;44.12;97847.06;5030658;28;20095;-71